Columbus, Ohio
Traffic Map
Current Weather Conditions
Columbus, Ohio
Scattered Clouds
Scattered Clouds
67°
Feels Like: 67°
Wind Chill: 67° Ceiling: Unl
Heat Index: 67° Visibility: 10mi
Dew Point: 65° Wind: 0mph
Humidity: 93% Direction: ° ()
Pressure: 30.1in Gusts: 0mph
Raw Report DataKCMH 050451Z 00000KT 10SM FEW080 SCT140 SCT250 19/18 A3010 RMK AO2 SLP187 T01940183 403060194
Traffic Incident Summary
Active as of:
Severity:
Category:
InformationThere was an issue retrieving the traffic information for this location. Please try a different location or try again shortly.
Advertisements
Track Severe Weather on mobile